Time;durP1;ratioP1;P1;durP2;ratioP2;P2;SDS_P1;SDS_P2;PMS_P1;PMS_P2;Temp;Humidity;BMP_temperature;BMP_pressure;BME280_temperature;BME280_humidity;BME280_pressure;Samples;Min_cycle;Max_cycle;Signal;HPM_P1;HPM_P2
2021/03/10 00:00:40;;;;;;;3.72;3.53;;;17.60;62.70;;;;;;5011870;28;20030;-33
2021/03/10 00:03:05;;;;;;;3.88;3.60;;;17.50;62.80;;;;;;5011560;28;20053;-35
2021/03/10 00:05:31;;;;;;;3.60;3.30;;;17.50;62.90;;;;;;5013497;28;20033;-34
2021/03/10 00:07:56;;;;;;;3.75;3.50;;;17.50;62.80;;;;;;5011493;28;20061;-31
2021/03/10 00:10:22;;;;;;;4.10;3.75;;;17.60;62.80;;;;;;4993344;28;20026;-31
2021/03/10 00:12:48;;;;;;;4.18;3.80;;;17.50;62.80;;;;;;5009384;28;20113;-36
2021/03/10 00:15:13;;;;;;;4.05;3.85;;;17.40;63.00;;;;;;5011578;28;20088;-33
2021/03/10 00:17:40;;;;;;;4.25;3.88;;;17.40;63.10;;;;;;5012499;28;20041;-37
2021/03/10 00:20:06;;;;;;;3.83;3.53;;;17.40;63.10;;;;;;5010990;28;20030;-35
2021/03/10 00:22:32;;;;;;;4.10;3.80;;;17.40;63.20;;;;;;5005733;28;20497;-34
2021/03/10 00:24:58;;;;;;;4.18;3.92;;;17.40;63.20;;;;;;4993155;28;20026;-37
2021/03/10 00:27:24;;;;;;;4.05;3.75;;;17.30;63.20;;;;;;5010756;28;20066;-32
2021/03/10 00:29:54;;;;;;;5.50;3.58;;;17.40;63.30;;;;;;4993904;28;20096;-36
2021/03/10 00:32:20;;;;;;;3.55;3.35;;;17.30;63.30;;;;;;5010605;28;20030;-33
2021/03/10 00:34:46;;;;;;;3.75;3.45;;;17.30;63.30;;;;;;5008772;28;20064;-39
2021/03/10 00:37:12;;;;;;;3.80;3.38;;;17.30;63.10;;;;;;5010164;28;20069;-36
2021/03/10 00:39:37;;;;;;;4.18;3.97;;;17.30;63.20;;;;;;5010341;28;20018;-34
2021/03/10 00:42:03;;;;;;;3.47;3.28;;;17.30;63.10;;;;;;5009417;28;20034;-35
2021/03/10 00:44:29;;;;;;;4.07;3.70;;;17.30;63.20;;;;;;5012862;28;20041;-36
2021/03/10 00:46:54;;;;;;;3.63;3.40;;;17.30;63.10;;;;;;5009553;28;20511;-32
2021/03/10 00:49:20;;;;;;;3.92;3.63;;;17.30;63.10;;;;;;5010167;28;20095;-34
2021/03/10 00:51:45;;;;;;;3.60;3.40;;;17.30;63.10;;;;;;5008984;28;20018;-34
2021/03/10 00:54:11;;;;;;;3.95;3.67;;;17.20;63.20;;;;;;5011381;28;20034;-32
2021/03/10 00:56:36;;;;;;;3.42;3.22;;;17.20;63.00;;;;;;5012921;28;20022;-38
2021/03/10 00:59:02;;;;;;;3.50;3.30;;;17.30;63.20;;;;;;5009764;28;20037;-35
2021/03/10 01:01:27;;;;;;;3.58;3.38;;;17.30;63.20;;;;;;5007985;28;20108;-32
2021/03/10 01:03:53;;;;;;;3.65;3.45;;;17.20;63.30;;;;;;5009626;28;20029;-35
2021/03/10 01:06:23;;;;;;;3.65;3.45;;;17.20;63.20;;;;;;5009584;28;20026;-34
2021/03/10 01:08:49;;;;;;;4.00;3.53;;;17.20;63.20;;;;;;5010499;28;20037;-36
2021/03/10 01:11:15;;;;;;;3.60;3.40;;;17.20;63.20;;;;;;5010752;28;20033;-34
2021/03/10 01:13:40;;;;;;;3.50;3.30;;;17.20;63.20;;;;;;5009785;28;20092;-34
2021/03/10 01:16:06;;;;;;;3.42;3.22;;;17.20;63.20;;;;;;5008182;28;20037;-29
2021/03/10 01:18:32;;;;;;;4.00;3.70;;;17.20;63.10;;;;;;5009909;28;20061;-36
2021/03/10 01:20:57;;;;;;;3.88;3.67;;;17.20;63.20;;;;;;5008802;28;20477;-30
2021/03/10 01:23:23;;;;;;;3.55;3.35;;;17.20;63.10;;;;;;5012290;28;20025;-34
2021/03/10 01:25:48;;;;;;;4.38;3.63;;;17.30;63.00;;;;;;5008616;28;20034;-32
2021/03/10 01:28:14;;;;;;;3.80;3.60;;;17.30;63.00;;;;;;5008357;28;20404;-35
2021/03/10 01:30:39;;;;;;;3.65;3.45;;;17.30;63.00;;;;;;5010869;28;20072;-33
2021/03/10 01:33:05;;;;;;;3.65;3.45;;;17.20;63.20;;;;;;5007989;28;20041;-34
2021/03/10 01:35:31;;;;;;;3.95;3.75;;;17.20;63.20;;;;;;5011380;28;20030;-35
2021/03/10 01:37:56;;;;;;;3.42;3.22;;;17.20;63.20;;;;;;5007377;28;20167;-32
2021/03/10 01:40:22;;;;;;;4.00;3.70;;;17.20;63.20;;;;;;5010327;28;20547;-36
2021/03/10 01:42:48;;;;;;;3.65;3.45;;;17.20;63.30;;;;;;5007566;28;20529;-35
2021/03/10 01:45:13;;;;;;;3.72;3.53;;;17.20;63.40;;;;;;5008448;28;20125;-33
2021/03/10 01:47:41;;;;;;;4.25;3.88;;;17.20;63.40;;;;;;5012472;28;20084;-35
2021/03/10 01:50:07;;;;;;;3.75;3.55;;;17.20;63.40;;;;;;5009906;28;20030;-36
2021/03/10 01:52:33;;;;;;;3.72;3.53;;;17.20;63.40;;;;;;4992643;28;20029;-35
2021/03/10 01:54:59;;;;;;;3.75;3.55;;;17.20;63.40;;;;;;4993122;28;20026;-37
2021/03/10 01:57:24;;;;;;;3.50;3.30;;;17.20;63.50;;;;;;4992810;28;20497;-35
2021/03/10 01:59:50;;;;;;;4.00;3.80;;;17.20;63.40;;;;;;4974708;28;20026;-37
2021/03/10 02:02:15;;;;;;;3.58;3.38;;;17.20;63.40;;;;;;5009526;28;20034;-35
2021/03/10 02:04:41;;;;;;;3.60;3.40;;;17.20;63.50;;;;;;5007807;28;20034;-37
2021/03/10 02:07:26;;;;;;;3.60;3.40;;;17.20;63.40;;;;;;4993197;28;20129;-37
2021/03/10 02:10:19;;;;;;;3.75;3.45;;;17.20;63.40;;;;;;4991836;28;20029;-37
2021/03/10 02:12:48;;;;;;;3.60;3.40;;;17.10;63.50;;;;;;4989828;28;20029;-32
2021/03/10 02:15:16;;;;;;;3.30;3.20;;;17.10;63.50;;;;;;4992592;28;20551;-34
2021/03/10 02:17:44;;;;;;;3.47;3.28;;;17.10;63.40;;;;;;5010357;28;20045;-40
2021/03/10 02:20:36;;;;;;;3.50;3.30;;;17.10;63.40;;;;;;4977435;28;20018;-30
2021/03/10 02:23:16;;;;;;;3.50;3.20;;;17.10;63.40;;;;;;4980942;28;20026;-35
2021/03/10 02:26:12;;;;;;;3.33;3.13;;;17.10;63.60;;;;;;5010976;28;20542;-34
2021/03/10 02:28:38;;;;;;;3.20;3.00;;;17.10;63.50;;;;;;4992687;28;20045;-38
2021/03/10 02:31:03;;;;;;;3.45;3.22;;;17.10;63.40;;;;;;5010784;28;20054;-38
2021/03/10 02:33:30;;;;;;;3.30;3.10;;;17.10;63.40;;;;;;4995554;28;20037;-34
2021/03/10 02:35:57;;;;;;;4.15;3.85;;;17.10;63.40;;;;;;4994938;28;20084;-42
2021/03/10 02:38:23;;;;;;;3.80;3.60;;;17.10;63.40;;;;;;4981795;28;20382;-32
2021/03/10 02:40:49;;;;;;;3.92;3.72;;;17.10;63.40;;;;;;4995460;28;20029;-32
2021/03/10 02:43:14;;;;;;;3.60;3.40;;;17.10;63.40;;;;;;4979509;28;20022;-30
2021/03/10 02:45:40;;;;;;;3.70;3.40;;;17.10;63.50;;;;;;4980160;28;20080;-34
2021/03/10 02:48:06;;;;;;;3.80;3.60;;;17.10;63.60;;;;;;4993025;28;20125;-32
2021/03/10 02:50:31;;;;;;;3.22;3.13;;;17.10;63.50;;;;;;5014399;28;20033;-33
2021/03/10 02:52:58;;;;;;;3.80;3.60;;;17.10;63.40;;;;;;5010779;28;20022;-32
2021/03/10 02:55:24;;;;;;;3.10;3.00;;;17.00;63.50;;;;;;4977562;28;20411;-36
2021/03/10 02:57:49;;;;;;;3.85;3.65;;;17.00;63.30;;;;;;4992930;28;20034;-34
2021/03/10 03:00:18;;;;;;;3.20;3.00;;;17.00;63.30;;;;;;5010948;28;20042;-33
2021/03/10 03:02:43;;;;;;;3.47;3.17;;;17.00;63.30;;;;;;5010314;28;20096;-34
2021/03/10 03:05:09;;;;;;;3.50;3.30;;;17.00;63.20;;;;;;5010307;28;20400;-33
2021/03/10 03:07:37;;;;;;;4.05;3.25;;;17.00;63.20;;;;;;5010975;28;20030;-31
2021/03/10 03:10:04;;;;;;;3.45;3.25;;;17.00;63.20;;;;;;5009059;28;20022;-34
2021/03/10 03:12:30;;;;;;;3.47;3.28;;;17.00;63.20;;;;;;5007478;28;20026;-34
2021/03/10 03:14:56;;;;;;;3.50;3.30;;;17.00;63.00;;;;;;4995464;28;20369;-37
2021/03/10 03:17:22;;;;;;;3.03;2.92;;;17.00;62.90;;;;;;4995108;28;20037;-35
2021/03/10 03:19:47;;;;;;;3.05;2.95;;;17.00;63.10;;;;;;4978309;28;20401;-37
2021/03/10 03:22:13;;;;;;;3.53;3.33;;;17.00;63.00;;;;;;5012235;28;20026;-33
2021/03/10 03:24:39;;;;;;;3.10;2.90;;;17.00;63.10;;;;;;4979251;28;20017;-36
2021/03/10 03:27:04;;;;;;;3.47;3.17;;;17.00;63.20;;;;;;4990962;28;20033;-30
2021/03/10 03:29:30;;;;;;;3.28;3.08;;;17.00;63.10;;;;;;4995774;28;20062;-32
2021/03/10 03:31:56;;;;;;;2.85;2.75;;;17.00;63.20;;;;;;4994252;28;20037;-40
2021/03/10 03:34:23;;;;;;;3.65;3.35;;;17.00;63.10;;;;;;4992484;28;20049;-34
2021/03/10 03:36:48;;;;;;;3.03;2.92;;;17.00;63.20;;;;;;4995718;28;20041;-33
2021/03/10 03:39:15;;;;;;;3.25;3.08;;;17.00;63.20;;;;;;4992418;28;20523;-40
2021/03/10 03:41:41;;;;;;;3.03;2.90;;;17.00;63.20;;;;;;4996540;28;20101;-35
2021/03/10 03:44:07;;;;;;;3.10;3.00;;;17.00;63.30;;;;;;4990018;28;20153;-39
2021/03/10 03:46:32;;;;;;;3.20;3.10;;;17.00;63.20;;;;;;5006675;28;20411;-32
2021/03/10 03:48:59;;;;;;;3.10;2.90;;;17.00;63.20;;;;;;4990991;28;20026;-38
2021/03/10 03:51:28;;;;;;;3.50;3.30;;;16.90;63.10;;;;;;5006535;28;20026;-31
2021/03/10 03:53:55;;;;;;;3.42;3.22;;;16.90;63.10;;;;;;5007491;28;20100;-34
2021/03/10 03:56:20;;;;;;;3.28;3.08;;;16.90;63.30;;;;;;5012403;28;20036;-32
2021/03/10 03:58:46;;;;;;;3.33;3.03;;;16.90;63.20;;;;;;5010451;28;20420;-30
2021/03/10 04:01:11;;;;;;;3.35;3.15;;;16.90;63.30;;;;;;5010348;28;20049;-35
2021/03/10 04:03:37;;;;;;;3.75;3.45;;;16.90;63.30;;;;;;5011262;28;20037;-34
2021/03/10 04:06:02;;;;;;;3.10;3.00;;;16.90;63.30;;;;;;5011134;28;20032;-30
2021/03/10 04:08:28;;;;;;;3.50;3.30;;;16.90;63.30;;;;;;5012390;28;20331;-33
2021/03/10 04:10:54;;;;;;;3.20;3.00;;;16.90;63.20;;;;;;5008912;28;20037;-32
2021/03/10 04:13:19;;;;;;;3.30;3.10;;;16.90;63.10;;;;;;5009665;28;20443;-34
2021/03/10 04:15:45;;;;;;;3.40;3.20;;;16.90;63.10;;;;;;5010977;28;20112;-33
2021/03/10 04:18:10;;;;;;;3.08;2.88;;;16.90;63.10;;;;;;5010337;28;20042;-34
2021/03/10 04:20:36;;;;;;;3.42;3.22;;;16.90;63.20;;;;;;4995555;28;20435;-32
2021/03/10 04:23:01;;;;;;;3.20;3.05;;;16.90;63.10;;;;;;5006615;28;20033;-33
2021/03/10 04:25:27;;;;;;;3.22;3.03;;;16.90;63.20;;;;;;5008937;28;20033;-30
2021/03/10 04:27:52;;;;;;;3.28;3.13;;;17.00;63.00;;;;;;4991341;28;20025;-32
2021/03/10 04:30:19;;;;;;;3.47;3.28;;;16.90;63.00;;;;;;5009773;28;20424;-31
2021/03/10 04:32:44;;;;;;;3.40;3.20;;;16.90;62.90;;;;;;5011812;28;20034;-36
2021/03/10 04:35:10;;;;;;;3.00;2.80;;;16.90;63.20;;;;;;5011256;28;20032;-33
2021/03/10 04:37:36;;;;;;;2.60;2.50;;;16.80;63.10;;;;;;5010834;28;20091;-30
2021/03/10 04:40:02;;;;;;;3.20;3.10;;;16.80;63.00;;;;;;5009356;28;20029;-31
2021/03/10 04:42:28;;;;;;;2.97;2.88;;;16.90;63.10;;;;;;5016078;28;20064;-40
2021/03/10 04:44:53;;;;;;;3.53;3.22;;;16.90;63.10;;;;;;5010327;28;20049;-32
2021/03/10 04:47:19;;;;;;;3.50;3.30;;;16.80;63.00;;;;;;5012595;28;20030;-38
2021/03/10 04:49:45;;;;;;;3.15;2.95;;;16.80;62.90;;;;;;5008721;28;20034;-34
2021/03/10 04:52:10;;;;;;;3.05;2.95;;;16.80;63.00;;;;;;5008946;28;20022;-36
2021/03/10 04:54:36;;;;;;;3.30;3.20;;;16.80;63.00;;;;;;5010909;28;20109;-40
2021/03/10 04:57:02;;;;;;;3.38;3.28;;;16.90;63.00;;;;;;5009756;28;20030;-34
2021/03/10 04:59:27;;;;;;;2.83;2.72;;;16.80;62.80;;;;;;5012248;28;20038;-37
2021/03/10 05:01:53;;;;;;;2.90;2.70;;;16.80;62.90;;;;;;5007962;28;20104;-33
2021/03/10 05:04:18;;;;;;;3.08;2.97;;;16.90;62.80;;;;;;5009982;28;20038;-35
2021/03/10 05:06:44;;;;;;;2.97;2.78;;;16.80;63.00;;;;;;5008937;28;20022;-33
2021/03/10 05:09:09;;;;;;;2.90;2.80;;;16.80;63.00;;;;;;4993373;28;20033;-36
2021/03/10 05:11:35;;;;;;;3.13;3.03;;;16.80;62.80;;;;;;5010980;28;20053;-34
2021/03/10 05:14:01;;;;;;;2.70;2.60;;;16.80;62.70;;;;;;5008800;28;20480;-37
2021/03/10 05:16:26;;;;;;;2.95;2.85;;;16.90;62.80;;;;;;5008809;28;20018;-34
2021/03/10 05:18:52;;;;;;;3.17;2.90;;;16.80;62.70;;;;;;5009512;28;20060;-36
2021/03/10 05:21:17;;;;;;;3.20;3.10;;;16.80;62.70;;;;;;5009433;28;20054;-37
2021/03/10 05:23:43;;;;;;;2.55;2.45;;;16.80;62.70;;;;;;5011198;28;20038;-36
2021/03/10 05:26:12;;;;;;;3.05;2.85;;;16.80;62.70;;;;;;5008645;28;20065;-34
2021/03/10 05:28:38;;;;;;;2.95;2.85;;;16.80;62.60;;;;;;5009995;28;20033;-37
2021/03/10 05:31:03;;;;;;;3.60;3.40;;;16.80;62.70;;;;;;5004617;28;20050;-31
2021/03/10 05:33:29;;;;;;;2.70;2.60;;;16.80;62.80;;;;;;5008385;28;20041;-33
2021/03/10 05:35:55;;;;;;;3.08;2.97;;;16.80;62.90;;;;;;5009879;28;20026;-34
2021/03/10 05:38:20;;;;;;;3.50;3.30;;;16.80;62.90;;;;;;5011350;28;20077;-36
2021/03/10 05:40:46;;;;;;;3.30;3.10;;;16.80;63.60;;;;;;5008918;28;20026;-34
2021/03/10 05:43:11;;;;;;;3.20;3.10;;;16.80;62.80;;;;;;5009244;28;20030;-34
2021/03/10 05:45:37;;;;;;;2.35;2.25;;;16.70;62.80;;;;;;4992695;28;20029;-33
2021/03/10 05:48:04;;;;;;;2.95;2.85;;;16.70;62.80;;;;;;5009726;28;20397;-31
2021/03/10 05:50:29;;;;;;;3.03;2.92;;;16.80;62.90;;;;;;5011570;28;20034;-34
2021/03/10 05:52:55;;;;;;;3.30;3.10;;;16.70;62.80;;;;;;4992465;28;20053;-31
2021/03/10 05:55:21;;;;;;;2.83;2.72;;;16.80;62.70;;;;;;4976809;28;20026;-38
2021/03/10 05:57:47;;;;;;;3.20;3.10;;;16.80;62.40;;;;;;4996657;28;20034;-38
2021/03/10 06:00:14;;;;;;;3.33;3.13;;;16.90;62.10;;;;;;5013468;28;20506;-32
2021/03/10 06:02:40;;;;;;;5.40;5.00;;;16.80;62.20;;;;;;4997849;28;20030;-31
2021/03/10 06:05:20;;;;;;;4.15;3.95;;;16.80;62.00;;;;;;5011398;28;20026;-34
2021/03/10 06:07:45;;;;;;;3.60;3.40;;;16.80;61.70;;;;;;5013367;28;20045;-34
2021/03/10 06:10:12;;;;;;;3.00;2.80;;;16.90;60.70;;;;;;5013168;28;20029;-36
2021/03/10 06:12:42;;;;;;;3.80;3.50;;;16.90;61.60;;;;;;5011633;28;20036;-33
2021/03/10 06:15:09;;;;;;;3.63;3.42;;;17.00;61.70;;;;;;5012262;28;20027;-37
2021/03/10 06:17:44;;;;;;;4.18;3.97;;;17.00;61.80;;;;;;5014419;28;20044;-38
2021/03/10 06:20:21;;;;;;;5.10;4.80;;;17.00;61.80;;;;;;5013819;28;20056;-37
2021/03/10 06:22:46;;;;;;;5.30;4.90;;;17.00;61.70;;;;;;5012805;28;20109;-34
2021/03/10 06:25:12;;;;;;;6.22;5.78;;;17.00;62.20;;;;;;5012671;28;20116;-38
2021/03/10 06:27:56;;;;;;;7.38;6.75;;;17.10;62.90;;;;;;5011986;28;20049;-31
2021/03/10 06:30:42;;;;;;;8.25;7.65;;;17.10;63.40;;;;;;5012167;28;20414;-37
2021/03/10 06:33:08;;;;;;;7.53;7.00;;;17.10;63.90;;;;;;5013593;28;20030;-36
2021/03/10 06:35:34;;;;;;;7.15;6.65;;;17.10;64.50;;;;;;5015175;28;20057;-37
2021/03/10 06:38:06;;;;;;;8.13;7.43;;;17.10;64.60;;;;;;5011440;28;20141;-37
2021/03/10 06:40:32;;;;;;;8.38;7.68;;;17.10;65.00;;;;;;5012421;28;20109;-38
2021/03/10 06:42:57;;;;;;;7.82;7.22;;;17.20;64.40;;;;;;5010816;28;20092;-35
2021/03/10 06:45:32;;;;;;;8.15;7.28;;;17.20;64.20;;;;;;5012327;28;20541;-43
2021/03/10 06:47:58;;;;;;;7.55;7.05;;;17.20;64.60;;;;;;5011265;28;20485;-34
2021/03/10 06:50:34;;;;;;;7.15;6.65;;;17.30;64.60;;;;;;5013728;28;20069;-35
2021/03/10 06:53:00;;;;;;;6.32;5.90;;;17.30;64.00;;;;;;5012425;28;20046;-33
2021/03/10 06:55:36;;;;;;;7.22;6.70;;;17.20;64.10;;;;;;4996396;28;20026;-32
2021/03/10 06:58:01;;;;;;;7.18;6.43;;;17.20;64.30;;;;;;4995218;28;20416;-32
2021/03/10 07:00:27;;;;;;;6.95;6.35;;;17.20;64.20;;;;;;5011390;28;20507;-34
2021/03/10 07:02:53;;;;;;;6.68;6.20;;;17.20;64.00;;;;;;5011879;28;20741;-37
2021/03/10 07:05:18;;;;;;;7.40;6.70;;;17.10;64.00;;;;;;5013073;28;20026;-38
2021/03/10 07:07:44;;;;;;;7.15;6.57;;;17.10;63.90;;;;;;4995295;28;20033;-35
2021/03/10 07:10:09;;;;;;;7.28;6.63;;;17.10;63.80;;;;;;5011432;28;20022;-37
2021/03/10 07:12:35;;;;;;;6.72;6.25;;;17.10;63.80;;;;;;5011871;28;20033;-33
2021/03/10 07:15:01;;;;;;;6.10;5.80;;;17.10;63.50;;;;;;5011344;28;20097;-40
2021/03/10 07:17:27;;;;;;;6.85;6.35;;;17.20;63.50;;;;;;5014104;28;20125;-36
2021/03/10 07:19:52;;;;;;;6.65;6.05;;;17.10;63.40;;;;;;4994314;28;20113;-39
2021/03/10 07:22:19;;;;;;;5.90;5.50;;;17.10;63.50;;;;;;5011027;28;20021;-35
2021/03/10 07:25:01;;;;;;;5.57;5.28;;;17.10;63.50;;;;;;5011566;28;20104;-38
2021/03/10 07:27:26;;;;;;;6.32;5.93;;;17.20;63.40;;;;;;4994702;28;20042;-33
2021/03/10 07:29:56;;;;;;;6.10;5.72;;;17.10;63.40;;;;;;4971221;28;20042;-35
2021/03/10 07:32:23;;;;;;;5.82;5.45;;;17.20;63.40;;;;;;5012178;28;20463;-32
2021/03/10 07:35:08;;;;;;;6.75;6.15;;;17.10;63.20;;;;;;5010425;28;20041;-35
2021/03/10 07:37:33;;;;;;;6.15;5.53;;;17.20;63.20;;;;;;4996194;28;20483;-33
2021/03/10 07:40:15;;;;;;;5.60;5.10;;;17.20;63.20;;;;;;5010549;28;20030;-30
2021/03/10 07:42:53;;;;;;;5.68;5.28;;;17.20;63.20;;;;;;5009633;28;20061;-33
2021/03/10 07:45:19;;;;;;;5.30;5.00;;;17.10;63.30;;;;;;4997008;28;20033;-31
2021/03/10 07:47:57;;;;;;;5.75;5.32;;;17.10;63.20;;;;;;5012783;28;20413;-36
2021/03/10 07:50:24;;;;;;;5.40;5.10;;;17.10;63.20;;;;;;5012247;28;20056;-33
2021/03/10 07:52:51;;;;;;;5.85;5.45;;;17.10;63.20;;;;;;5010794;28;20038;-31
2021/03/10 07:55:16;;;;;;;5.63;5.22;;;17.20;63.20;;;;;;5011080;28;20057;-38
2021/03/10 07:57:51;;;;;;;5.63;5.22;;;17.10;63.10;;;;;;5011220;28;20076;-33
2021/03/10 08:00:17;;;;;;;5.05;4.75;;;17.20;63.20;;;;;;4996441;28;20046;-34
2021/03/10 08:02:44;;;;;;;4.95;4.65;;;17.10;63.00;;;;;;5013174;28;20080;-31
2021/03/10 08:05:26;;;;;;;5.05;4.65;;;17.10;63.10;;;;;;5010477;28;20045;-32
2021/03/10 08:08:06;;;;;;;5.38;4.75;;;17.10;63.10;;;;;;5009992;28;20112;-32
2021/03/10 08:10:32;;;;;;;4.93;4.63;;;17.20;63.00;;;;;;5009762;28;20033;-35
2021/03/10 08:12:58;;;;;;;4.78;4.57;;;17.20;63.00;;;;;;4994511;28;20507;-31
2021/03/10 08:15:23;;;;;;;5.20;4.90;;;17.10;63.00;;;;;;4994865;28;20108;-33
2021/03/10 08:17:49;;;;;;;5.28;4.93;;;17.20;63.00;;;;;;5001302;28;20038;-37
2021/03/10 08:20:15;;;;;;;4.80;4.60;;;17.20;63.00;;;;;;5006912;28;20102;-37
2021/03/10 08:22:41;;;;;;;4.40;4.20;;;17.10;62.90;;;;;;5008888;28;20030;-35
2021/03/10 08:25:06;;;;;;;3.83;3.63;;;17.10;62.80;;;;;;5008513;28;20496;-34
2021/03/10 08:27:35;;;;;;;4.63;4.43;;;17.10;62.80;;;;;;4976241;28;20061;-30
2021/03/10 08:30:03;;;;;;;4.55;4.35;;;17.10;62.80;;;;;;5009727;28;20504;-32
2021/03/10 08:32:30;;;;;;;4.55;4.25;;;17.20;62.80;;;;;;5011085;28;20112;-38
2021/03/10 08:35:00;;;;;;;4.35;4.15;;;17.20;62.90;;;;;;5008065;28;20540;-40
2021/03/10 08:37:26;;;;;;;4.20;4.00;;;17.10;62.80;;;;;;5009517;28;20055;-34
2021/03/10 08:39:51;;;;;;;4.05;3.85;;;17.10;62.70;;;;;;5009004;28;20034;-36
2021/03/10 08:42:18;;;;;;;4.30;4.10;;;17.20;62.60;;;;;;5009705;28;20030;-36
2021/03/10 08:44:45;;;;;;;4.18;3.88;;;17.20;62.70;;;;;;5010897;28;20037;-34
2021/03/10 08:47:18;;;;;;;3.78;3.58;;;17.20;62.80;;;;;;5010530;28;20176;-39
2021/03/10 08:49:44;;;;;;;4.40;4.05;;;17.10;62.60;;;;;;5009231;28;20030;-35
2021/03/10 08:52:16;;;;;;;3.90;3.70;;;17.10;62.60;;;;;;5008175;28;20414;-33
2021/03/10 08:54:57;;;;;;;3.90;3.70;;;17.20;62.70;;;;;;5011369;28;20029;-37
2021/03/10 08:57:33;;;;;;;3.78;3.58;;;17.20;62.70;;;;;;4996066;28;20022;-36
2021/03/10 08:59:59;;;;;;;4.40;4.10;;;17.20;62.80;;;;;;5010097;28;20026;-33
2021/03/10 09:02:25;;;;;;;3.55;3.35;;;17.10;62.60;;;;;;5011920;28;20072;-35
2021/03/10 09:04:51;;;;;;;3.53;3.33;;;17.10;62.70;;;;;;5009694;28;20034;-31
2021/03/10 09:07:17;;;;;;;3.42;3.22;;;17.10;62.90;;;;;;4977055;28;20024;-34
2021/03/10 09:09:43;;;;;;;3.92;3.65;;;17.20;62.70;;;;;;5009585;28;20037;-33
2021/03/10 09:12:09;;;;;;;3.70;3.50;;;17.20;62.90;;;;;;4991248;28;20151;-35
2021/03/10 09:14:36;;;;;;;2.28;2.17;;;17.10;63.20;;;;;;4994348;28;20484;-30
2021/03/10 09:17:01;;;;;;;3.45;3.25;;;17.10;62.90;;;;;;4976745;28;20030;-34
2021/03/10 09:19:47;;;;;;;3.60;3.40;;;17.20;62.90;;;;;;5009787;28;20034;-34
2021/03/10 09:22:22;;;;;;;3.38;3.20;;;17.20;62.90;;;;;;5008563;28;20041;-31
2021/03/10 09:24:48;;;;;;;2.75;2.65;;;17.20;62.80;;;;;;5008630;28;20053;-33
2021/03/10 09:27:40;;;;;;;3.42;2.83;;;17.20;62.80;;;;;;5009795;28;20038;-32
2021/03/10 09:30:11;;;;;;;3.13;3.03;;;17.20;63.00;;;;;;5004292;28;20066;-37
2021/03/10 09:32:48;;;;;;;3.60;3.40;;;17.20;63.00;;;;;;5011548;28;20554;-34
2021/03/10 09:35:20;;;;;;;3.35;3.15;;;17.20;63.10;;;;;;5008030;28;20037;-34
2021/03/10 09:37:48;;;;;;;2.83;2.72;;;17.10;63.00;;;;;;5006027;28;20049;-39
2021/03/10 09:40:15;;;;;;;3.40;3.20;;;17.10;62.90;;;;;;5008808;28;20034;-34
2021/03/10 09:42:41;;;;;;;3.38;3.25;;;17.10;62.90;;;;;;5007936;28;20033;-35
2021/03/10 09:45:07;;;;;;;3.13;3.00;;;17.10;62.90;;;;;;4990300;28;20026;-37
2021/03/10 09:47:32;;;;;;;3.72;3.03;;;17.20;62.80;;;;;;5010534;28;20432;-34
2021/03/10 09:49:59;;;;;;;3.20;3.00;;;17.20;62.80;;;;;;5008557;28;20048;-36
2021/03/10 09:52:38;;;;;;;2.92;2.83;;;17.20;62.80;;;;;;5009502;28;20034;-34
2021/03/10 09:55:05;;;;;;;2.53;2.42;;;17.20;62.70;;;;;;5007146;28;20022;-33
2021/03/10 09:57:31;;;;;;;2.78;2.63;;;17.10;62.70;;;;;;5008073;28;20165;-34
2021/03/10 09:59:57;;;;;;;3.10;2.88;;;17.20;62.70;;;;;;5009025;28;20108;-36
2021/03/10 10:02:23;;;;;;;2.70;2.60;;;17.20;62.50;;;;;;5009849;28;20145;-35
2021/03/10 10:04:57;;;;;;;2.80;2.70;;;17.20;62.50;;;;;;5008606;28;20034;-34
2021/03/10 10:07:22;;;;;;;2.45;2.35;;;17.20;62.50;;;;;;5009041;28;20492;-36
2021/03/10 10:09:48;;;;;;;2.30;2.20;;;17.20;62.40;;;;;;5008997;28;20222;-37
2021/03/10 10:12:14;;;;;;;2.67;2.58;;;17.20;62.40;;;;;;5007888;28;20052;-39
2021/03/10 10:14:39;;;;;;;2.72;2.53;;;17.20;62.40;;;;;;5010666;28;20032;-32
2021/03/10 10:17:05;;;;;;;2.60;2.50;;;17.20;62.30;;;;;;5007866;28;20506;-36
2021/03/10 10:19:31;;;;;;;2.42;2.33;;;17.20;62.50;;;;;;4990227;28;20034;-33
2021/03/10 10:21:56;;;;;;;2.72;2.55;;;17.20;62.40;;;;;;5009405;28;20026;-35
2021/03/10 10:24:22;;;;;;;3.17;2.97;;;17.20;63.00;;;;;;4992917;28;20087;-34
2021/03/10 10:26:48;;;;;;;2.70;2.60;;;17.30;62.30;;;;;;5010788;28;20033;-34
2021/03/10 10:29:14;;;;;;;2.72;2.53;;;17.20;62.40;;;;;;5008733;28;20176;-33
2021/03/10 10:31:40;;;;;;;2.38;2.25;;;17.30;62.50;;;;;;5006489;28;20121;-37
2021/03/10 10:34:05;;;;;;;2.80;2.70;;;17.30;62.40;;;;;;5009194;28;20030;-34
2021/03/10 10:36:31;;;;;;;2.50;2.40;;;17.40;62.20;;;;;;5007592;28;20041;-37
2021/03/10 10:38:57;;;;;;;2.47;2.38;;;17.30;62.20;;;;;;5009534;28;20049;-34
2021/03/10 10:41:22;;;;;;;2.58;2.47;;;17.30;62.40;;;;;;5009301;28;20025;-32
2021/03/10 10:43:48;;;;;;;2.55;2.35;;;17.30;62.50;;;;;;5012904;28;20104;-37
2021/03/10 10:46:13;;;;;;;2.75;2.65;;;17.30;62.50;;;;;;5012592;28;20549;-35
2021/03/10 10:48:39;;;;;;;2.28;2.17;;;17.40;62.50;;;;;;5012314;28;20113;-31
2021/03/10 10:51:05;;;;;;;2.30;2.20;;;17.40;62.50;;;;;;4994738;28;20037;-38
2021/03/10 10:53:30;;;;;;;2.20;2.10;;;17.40;62.40;;;;;;4996978;28;20033;-35
2021/03/10 10:55:56;;;;;;;2.15;2.05;;;17.40;62.40;;;;;;5010585;28;20018;-34
2021/03/10 10:58:21;;;;;;;2.17;2.08;;;17.40;62.50;;;;;;5012511;28;20068;-37
2021/03/10 11:00:47;;;;;;;2.15;2.05;;;17.40;62.40;;;;;;5011485;28;20044;-34
2021/03/10 11:03:12;;;;;;;2.25;2.15;;;17.40;62.50;;;;;;5010975;28;20025;-35
2021/03/10 11:05:38;;;;;;;2.38;2.28;;;17.40;62.60;;;;;;5015272;28;20034;-33
2021/03/10 11:08:04;;;;;;;2.47;2.10;;;17.40;62.30;;;;;;5011932;28;20385;-31
2021/03/10 11:10:29;;;;;;;2.20;2.10;;;17.40;61.90;;;;;;5011617;28;20041;-35
2021/03/10 11:12:55;;;;;;;2.13;2.03;;;17.40;61.60;;;;;;5010573;28;20040;-36
2021/03/10 11:15:20;;;;;;;2.75;2.40;;;17.50;61.70;;;;;;5012084;28;20500;-34
2021/03/10 11:17:46;;;;;;;2.10;2.00;;;17.50;61.80;;;;;;5013558;28;20038;-33
2021/03/10 11:20:13;;;;;;;2.72;2.53;;;17.70;61.50;;;;;;5011599;28;20038;-35
2021/03/10 11:22:38;;;;;;;2.35;2.20;;;17.70;61.30;;;;;;5010675;28;20034;-33
2021/03/10 11:25:09;;;;;;;2.25;2.13;;;17.80;60.90;;;;;;5007737;28;20033;-37
2021/03/10 11:27:38;;;;;;;2.40;2.20;;;17.80;60.70;;;;;;5003181;28;20069;-38
2021/03/10 11:30:08;;;;;;;2.15;2.05;;;17.70;60.90;;;;;;5005091;28;20054;-35
2021/03/10 11:32:34;;;;;;;3.92;2.53;;;17.70;61.10;;;;;;5009413;28;20033;-38
2021/03/10 11:34:59;;;;;;;3.67;2.33;;;17.70;61.10;;;;;;5010238;28;20053;-36
2021/03/10 11:37:25;;;;;;;2.13;2.03;;;17.60;61.30;;;;;;5010718;28;20095;-38
2021/03/10 11:39:51;;;;;;;2.30;2.10;;;17.50;61.20;;;;;;5010326;28;20033;-31
2021/03/10 11:42:16;;;;;;;2.28;1.95;;;17.40;61.50;;;;;;5010050;28;20073;-35
2021/03/10 11:44:42;;;;;;;4.00;2.00;;;17.40;61.80;;;;;;5012488;28;20030;-38
2021/03/10 11:47:08;;;;;;;2.20;2.10;;;17.30;62.00;;;;;;5010355;28;20030;-39
2021/03/10 11:49:33;;;;;;;3.90;2.08;;;17.30;62.10;;;;;;5010298;28;20030;-34
2021/03/10 11:51:59;;;;;;;1.90;1.80;;;17.30;62.20;;;;;;5010468;28;20108;-37
2021/03/10 11:54:25;;;;;;;2.70;2.10;;;17.30;62.40;;;;;;5009121;28;20026;-34
2021/03/10 11:56:50;;;;;;;2.72;2.33;;;17.30;62.50;;;;;;4662995;28;9999817;-40
2021/03/10 11:59:16;;;;;;;2.50;2.30;;;17.40;62.50;;;;;;5006701;28;20034;-41
2021/03/10 12:01:42;;;;;;;2.88;2.10;;;17.40;63.20;;;;;;5005789;28;20061;-36
2021/03/10 12:04:07;;;;;;;2.63;2.33;;;17.60;62.70;;;;;;5006743;28;20033;-35
2021/03/10 12:06:33;;;;;;;3.13;2.20;;;17.70;62.50;;;;;;5007752;28;20484;-39
2021/03/10 12:08:59;;;;;;;2.15;2.05;;;17.70;62.10;;;;;;5006644;28;20113;-36
2021/03/10 12:11:24;;;;;;;2.50;2.30;;;17.70;62.60;;;;;;5009502;28;20022;-35
2021/03/10 12:13:50;;;;;;;2.00;1.90;;;17.80;62.30;;;;;;5005824;28;20029;-39
2021/03/10 12:16:15;;;;;;;2.83;1.85;;;17.80;62.20;;;;;;5005626;28;20109;-38
2021/03/10 12:18:41;;;;;;;3.10;2.00;;;17.80;62.10;;;;;;5007290;28;20049;-35
2021/03/10 12:21:06;;;;;;;2.45;2.00;;;17.80;62.20;;;;;;5006188;28;20057;-32
2021/03/10 12:23:33;;;;;;;1.95;1.85;;;17.80;62.40;;;;;;5012534;28;20026;-32
2021/03/10 12:25:59;;;;;;;3.40;2.30;;;17.80;62.40;;;;;;5010699;28;20094;-27
2021/03/10 12:28:24;;;;;;;2.28;2.17;;;17.80;62.10;;;;;;5010706;28;20500;-34
2021/03/10 12:30:50;;;;;;;2.88;2.67;;;17.90;61.90;;;;;;5010769;28;20038;-35
2021/03/10 12:33:16;;;;;;;2.53;2.30;;;17.80;62.10;;;;;;5009286;28;20065;-37
2021/03/10 12:35:42;;;;;;;2.65;1.77;;;17.70;62.20;;;;;;5011814;28;20025;-34
2021/03/10 12:38:08;;;;;;;2.78;2.10;;;17.70;62.40;;;;;;5007772;28;20042;-37
2021/03/10 12:40:33;;;;;;;2.40;2.20;;;17.60;62.60;;;;;;5010193;28;20040;-37
2021/03/10 12:42:59;;;;;;;2.20;1.95;;;17.50;63.10;;;;;;5003381;28;20049;-35
2021/03/10 12:45:24;;;;;;;2.15;2.05;;;17.60;63.10;;;;;;5005298;28;20018;-41
2021/03/10 12:47:50;;;;;;;4.28;2.20;;;17.50;63.00;;;;;;5010905;28;20057;-41